Time;durP1;ratioP1;P1;durP2;ratioP2;P2;SDS_P1;SDS_P2;PMS_P1;PMS_P2;Temp;Humidity;BMP_temperature;BMP_pressure;BME280_temperature;BME280_humidity;BME280_pressure;Samples;Min_cycle;Max_cycle;Signal;HPM_P1;HPM_P2
2024/01/25 00:01:27;;;;;;;131.75;123.63;;;13.60;99.90;;;;;;5054386;28;20037;-75
2024/01/25 00:03:53;;;;;;;132.93;124.43;;;13.60;99.90;;;;;;5037376;28;20379;-75
2024/01/25 00:06:20;;;;;;;127.75;119.68;;;13.60;99.90;;;;;;5045420;28;20037;-74
2024/01/25 00:08:46;;;;;;;118.53;111.32;;;13.60;99.90;;;;;;5034985;28;20048;-75
2024/01/25 00:11:12;;;;;;;136.52;128.35;;;13.60;99.90;;;;;;5035149;28;20056;-75
2024/01/25 00:13:38;;;;;;;98.10;92.22;;;13.60;99.90;;;;;;5017986;28;20044;-75
2024/01/25 00:16:05;;;;;;;108.03;101.05;;;13.60;99.90;;;;;;5041538;28;20033;-75
2024/01/25 00:18:31;;;;;;;121.65;114.13;;;13.60;99.90;;;;;;5054847;28;20029;-74
2024/01/25 00:20:57;;;;;;;111.28;104.78;;;13.60;99.90;;;;;;5054349;28;20037;-75
2024/01/25 00:23:23;;;;;;;107.90;101.00;;;13.60;99.90;;;;;;5037529;28;20451;-74
2024/01/25 00:25:49;;;;;;;101.03;94.55;;;13.60;99.90;;;;;;5054706;28;20029;-74
2024/01/25 00:28:15;;;;;;;122.50;114.53;;;13.60;99.90;;;;;;5054886;28;20471;-75
2024/01/25 00:30:41;;;;;;;106.68;100.47;;;13.60;99.90;;;;;;5054106;28;20053;-74
2024/01/25 00:33:07;;;;;;;101.95;95.53;;;13.60;99.90;;;;;;5054599;28;20029;-75
2024/01/25 00:35:34;;;;;;;110.40;103.70;;;13.60;99.90;;;;;;5051235;28;20026;-74
2024/01/25 00:38:00;;;;;;;131.57;123.32;;;13.60;99.90;;;;;;5033139;28;20033;-75
2024/01/25 00:40:27;;;;;;;118.00;111.13;;;13.60;99.90;;;;;;5054541;28;20380;-75
2024/01/25 00:42:53;;;;;;;133.55;125.85;;;13.70;99.90;;;;;;5054813;28;20394;-74
2024/01/25 00:45:23;;;;;;;145.93;137.05;;;13.60;99.90;;;;;;5036233;28;20032;-75
2024/01/25 00:47:49;;;;;;;129.80;122.10;;;13.60;99.90;;;;;;5054600;28;20032;-74
2024/01/25 00:50:23;;;;;;;136.27;127.90;;;13.60;99.90;;;;;;5054221;28;20048;-74
2024/01/25 00:52:50;;;;;;;131.90;123.88;;;13.60;99.90;;;;;;5037042;28;20037;-74
2024/01/25 00:55:17;;;;;;;132.18;124.20;;;13.50;99.90;;;;;;5054316;28;20033;-75
2024/01/25 00:57:43;;;;;;;132.13;123.85;;;13.50;99.90;;;;;;5054641;28;20028;-74
2024/01/25 01:00:10;;;;;;;129.95;122.40;;;13.50;99.90;;;;;;5035895;28;20077;-75
2024/01/25 01:02:44;;;;;;;113.68;106.50;;;13.50;99.90;;;;;;5047180;28;20040;-75
2024/01/25 01:05:11;;;;;;;133.50;125.38;;;13.60;99.90;;;;;;5052215;28;20471;-74
2024/01/25 01:07:40;;;;;;;152.95;143.70;;;13.60;99.90;;;;;;5033984;28;20045;-74
2024/01/25 01:10:07;;;;;;;145.15;136.20;;;13.60;99.90;;;;;;5012962;28;20049;-75
2024/01/25 01:12:33;;;;;;;134.10;125.90;;;13.60;99.90;;;;;;5014644;28;20049;-75
2024/01/25 01:14:59;;;;;;;144.05;135.52;;;13.60;99.90;;;;;;5013357;28;20034;-75
2024/01/25 01:17:27;;;;;;;134.25;126.35;;;13.50;99.90;;;;;;5013649;28;20046;-74
2024/01/25 01:19:53;;;;;;;114.00;106.95;;;13.50;99.90;;;;;;5014640;28;20030;-74
2024/01/25 01:22:19;;;;;;;120.00;113.13;;;13.50;99.90;;;;;;5022960;28;20033;-75
2024/01/25 01:24:45;;;;;;;134.77;126.95;;;13.50;99.90;;;;;;5034177;28;20037;-74
2024/01/25 01:27:11;;;;;;;140.88;132.13;;;13.40;99.90;;;;;;5033466;28;20037;-74
2024/01/25 01:29:37;;;;;;;112.38;105.40;;;13.40;99.90;;;;;;5034067;28;20061;-74
2024/01/25 01:32:03;;;;;;;119.43;112.22;;;13.40;99.90;;;;;;5032861;28;20034;-75
2024/01/25 01:34:29;;;;;;;132.38;124.63;;;13.40;99.90;;;;;;5032489;28;20038;-74
2024/01/25 01:36:55;;;;;;;114.10;107.28;;;13.30;99.90;;;;;;5019126;28;20037;-74
2024/01/25 01:39:22;;;;;;;111.55;104.93;;;13.30;99.90;;;;;;5014263;28;20057;-74
2024/01/25 01:41:48;;;;;;;125.60;118.43;;;13.40;99.90;;;;;;5013970;28;20057;-75
2024/01/25 01:44:15;;;;;;;119.57;112.40;;;13.40;99.90;;;;;;5020669;28;20052;-74
2024/01/25 01:46:42;;;;;;;152.35;143.23;;;13.40;99.90;;;;;;5032570;28;20033;-74
2024/01/25 01:49:12;;;;;;;114.85;107.80;;;13.40;99.90;;;;;;5032348;28;20049;-74
2024/01/25 01:51:39;;;;;;;97.17;91.57;;;13.50;99.90;;;;;;5032282;28;20038;-74
2024/01/25 01:54:08;;;;;;;100.90;94.78;;;13.40;99.90;;;;;;5033455;28;20040;-74
2024/01/25 01:56:35;;;;;;;114.88;108.22;;;13.40;99.90;;;;;;5021556;28;20531;-75
2024/01/25 01:59:02;;;;;;;119.53;112.40;;;13.40;99.90;;;;;;5011872;28;20034;-74
2024/01/25 02:01:28;;;;;;;134.60;126.70;;;13.40;99.90;;;;;;5012847;28;20034;-74
2024/01/25 02:03:55;;;;;;;152.63;144.10;;;13.40;99.90;;;;;;5013732;28;20026;-74
2024/01/25 02:06:24;;;;;;;135.40;127.80;;;13.40;99.90;;;;;;5012950;28;20045;-74
2024/01/25 02:08:51;;;;;;;138.05;130.18;;;13.40;99.90;;;;;;5027038;28;20053;-74
2024/01/25 02:11:17;;;;;;;131.85;124.25;;;13.40;99.90;;;;;;5051997;28;20061;-74
2024/01/25 02:13:44;;;;;;;116.22;108.90;;;13.40;99.90;;;;;;5052815;28;20460;-74
2024/01/25 02:16:10;;;;;;;150.13;141.55;;;13.40;99.90;;;;;;5052354;28;20433;-74
2024/01/25 02:18:36;;;;;;;157.20;148.27;;;13.40;99.90;;;;;;5052506;28;20044;-74
2024/01/25 02:21:02;;;;;;;170.63;161.35;;;13.30;99.90;;;;;;5052429;28;20037;-75
2024/01/25 02:23:28;;;;;;;144.90;136.75;;;13.30;99.90;;;;;;5053084;28;20040;-75
2024/01/25 02:25:54;;;;;;;189.30;179.07;;;13.40;99.90;;;;;;5052414;28;20420;-75
2024/01/25 02:28:20;;;;;;;187.57;177.13;;;13.40;99.90;;;;;;5052411;28;20033;-75
2024/01/25 02:30:46;;;;;;;166.77;157.63;;;13.40;99.90;;;;;;5051587;28;20503;-74
2024/01/25 02:33:12;;;;;;;144.85;136.80;;;13.40;99.90;;;;;;5044936;28;20038;-74
2024/01/25 02:35:38;;;;;;;124.50;117.43;;;13.40;99.90;;;;;;5018872;28;20033;-74
2024/01/25 02:38:05;;;;;;;109.80;103.63;;;13.40;99.90;;;;;;5052837;28;20055;-74
2024/01/25 02:40:31;;;;;;;108.13;101.97;;;13.40;99.90;;;;;;5034282;28;20471;-74
2024/01/25 02:42:57;;;;;;;104.90;98.85;;;13.40;99.90;;;;;;5052313;28;20029;-75
2024/01/25 02:45:23;;;;;;;104.68;98.20;;;13.40;99.90;;;;;;5051951;28;20040;-74
2024/01/25 02:47:49;;;;;;;109.45;103.28;;;13.40;99.90;;;;;;5034691;28;20387;-75
2024/01/25 02:50:16;;;;;;;103.60;97.53;;;13.40;99.90;;;;;;5052113;28;20045;-74
2024/01/25 02:52:42;;;;;;;112.38;105.75;;;13.40;99.90;;;;;;5052549;28;20033;-74
2024/01/25 02:55:08;;;;;;;114.10;108.00;;;13.30;99.90;;;;;;5017734;28;20040;-75
2024/01/25 02:57:34;;;;;;;115.20;108.90;;;13.30;99.90;;;;;;5032308;28;20033;-74
2024/01/25 03:00:00;;;;;;;124.05;116.72;;;13.30;99.90;;;;;;5031979;28;20033;-75
2024/01/25 03:02:26;;;;;;;114.72;108.03;;;13.30;99.90;;;;;;5044638;28;20042;-75
2024/01/25 03:04:52;;;;;;;129.82;122.28;;;13.30;99.90;;;;;;5024664;28;20084;-74
2024/01/25 03:07:19;;;;;;;116.95;110.13;;;13.30;99.90;;;;;;5037351;28;20796;-74
2024/01/25 03:09:45;;;;;;;127.80;120.75;;;13.30;99.90;;;;;;5046780;28;20056;-74
2024/01/25 03:12:11;;;;;;;122.18;115.32;;;13.40;99.90;;;;;;5046714;28;20055;-74
2024/01/25 03:14:37;;;;;;;131.45;123.95;;;13.40;99.90;;;;;;5050953;28;20032;-74
2024/01/25 03:17:03;;;;;;;132.32;124.60;;;13.30;99.90;;;;;;5050018;28;20055;-74
2024/01/25 03:19:29;;;;;;;122.68;115.88;;;13.30;99.90;;;;;;5050727;28;20040;-74
2024/01/25 03:21:55;;;;;;;103.85;97.57;;;13.40;99.90;;;;;;5050659;28;20395;-74
2024/01/25 03:24:22;;;;;;;104.80;98.70;;;13.40;99.90;;;;;;5050245;28;20044;-74
2024/01/25 03:26:48;;;;;;;96.75;91.50;;;13.40;99.90;;;;;;5035777;28;20042;-74
2024/01/25 03:29:14;;;;;;;96.35;90.50;;;13.40;99.90;;;;;;5030187;28;20127;-74
2024/01/25 03:31:40;;;;;;;102.45;96.38;;;13.40;99.90;;;;;;5044718;28;20049;-74
2024/01/25 03:34:07;;;;;;;144.05;136.35;;;13.30;99.90;;;;;;5049962;28;20037;-74
2024/01/25 03:36:33;;;;;;;130.68;123.45;;;13.40;99.90;;;;;;5050595;28;20041;-74
2024/01/25 03:38:59;;;;;;;127.93;120.57;;;13.40;99.90;;;;;;5051893;28;20029;-74
2024/01/25 03:41:25;;;;;;;119.35;112.57;;;13.40;99.90;;;;;;5051410;28;20033;-74
2024/01/25 03:43:51;;;;;;;136.80;128.93;;;13.40;99.90;;;;;;5051889;28;20040;-74
2024/01/25 03:46:17;;;;;;;130.77;123.35;;;13.40;99.90;;;;;;5050807;28;20040;-74
2024/01/25 03:48:43;;;;;;;149.65;141.35;;;13.40;99.90;;;;;;5051867;28;20032;-74
2024/01/25 03:51:10;;;;;;;128.35;120.65;;;13.40;99.90;;;;;;5051452;28;20072;-74
2024/01/25 03:53:36;;;;;;;120.03;113.28;;;13.30;99.90;;;;;;5051778;28;20033;-74
2024/01/25 03:56:02;;;;;;;156.15;147.35;;;13.30;99.90;;;;;;5032856;28;20067;-74
2024/01/25 03:58:28;;;;;;;145.43;137.43;;;13.30;99.90;;;;;;5058378;28;20025;-74
2024/01/25 04:00:54;;;;;;;135.63;128.25;;;13.20;99.90;;;;;;5032936;28;20395;-74
2024/01/25 04:03:21;;;;;;;133.88;126.50;;;13.20;99.90;;;;;;5033968;28;20036;-74
2024/01/25 04:05:47;;;;;;;132.07;124.72;;;13.20;99.90;;;;;;5050408;28;20045;-74
2024/01/25 04:08:13;;;;;;;129.48;122.18;;;13.20;99.90;;;;;;5051753;28;20040;-74
2024/01/25 04:10:39;;;;;;;131.60;124.40;;;13.20;99.90;;;;;;5050756;28;20045;-74
2024/01/25 04:13:06;;;;;;;134.70;127.05;;;13.20;99.90;;;;;;5051552;28;20029;-74
2024/01/25 04:15:32;;;;;;;142.60;134.63;;;13.20;99.90;;;;;;5050343;28;20045;-74
2024/01/25 04:17:58;;;;;;;159.25;150.45;;;13.20;99.90;;;;;;5033827;28;20029;-74
2024/01/25 04:20:24;;;;;;;164.02;154.95;;;13.10;99.90;;;;;;5051189;28;20047;-74
2024/01/25 04:22:50;;;;;;;182.57;172.77;;;13.10;99.90;;;;;;5051234;28;20032;-74
2024/01/25 04:25:17;;;;;;;182.52;172.27;;;13.10;99.90;;;;;;5050420;28;20475;-74
2024/01/25 04:27:43;;;;;;;173.10;163.60;;;13.10;99.90;;;;;;5033688;28;20051;-74
2024/01/25 04:30:10;;;;;;;178.55;169.05;;;13.10;99.90;;;;;;5050478;28;20025;-74
2024/01/25 04:32:36;;;;;;;191.90;181.68;;;13.00;99.90;;;;;;5050949;28;20403;-74
2024/01/25 04:35:02;;;;;;;203.77;192.85;;;13.00;99.90;;;;;;5051395;28;20029;-74
2024/01/25 04:37:28;;;;;;;193.63;183.05;;;13.00;99.90;;;;;;5031783;28;20040;-75
2024/01/25 04:39:54;;;;;;;193.63;183.13;;;13.00;99.90;;;;;;5050891;28;20025;-74
2024/01/25 04:42:20;;;;;;;194.30;183.80;;;13.00;99.90;;;;;;5033961;28;20035;-74
2024/01/25 04:44:46;;;;;;;197.63;186.95;;;13.00;99.90;;;;;;5037193;28;20029;-74
2024/01/25 04:47:12;;;;;;;206.50;195.38;;;13.00;99.90;;;;;;5053406;28;20044;-74
2024/01/25 04:49:40;;;;;;;210.55;198.73;;;12.90;99.90;;;;;;5054085;28;20391;-74
2024/01/25 04:52:06;;;;;;;219.95;207.95;;;12.90;99.90;;;;;;5036816;28;20041;-74
2024/01/25 04:54:32;;;;;;;227.57;215.43;;;12.90;99.90;;;;;;5053508;28;20380;-74
2024/01/25 04:56:58;;;;;;;212.80;201.18;;;12.80;99.90;;;;;;5054299;28;20033;-74
2024/01/25 04:59:24;;;;;;;211.65;199.98;;;12.80;99.90;;;;;;5054673;28;20048;-74
2024/01/25 05:01:51;;;;;;;216.95;205.52;;;12.80;99.90;;;;;;5053686;28;20033;-74
2024/01/25 05:04:17;;;;;;;208.32;197.15;;;12.90;99.90;;;;;;5054432;28;20029;-74
2024/01/25 05:06:43;;;;;;;211.45;199.98;;;12.90;99.90;;;;;;5054325;28;20033;-74
2024/01/25 05:09:09;;;;;;;227.15;214.77;;;12.70;99.90;;;;;;5053454;28;20092;-74
2024/01/25 05:11:39;;;;;;;207.50;196.13;;;12.70;99.90;;;;;;5036197;28;20407;-74
2024/01/25 05:14:06;;;;;;;203.18;192.13;;;12.70;99.90;;;;;;5035628;28;20391;-74
2024/01/25 05:16:32;;;;;;;204.23;192.93;;;12.70;99.90;;;;;;5052528;28;20184;-74
2024/01/25 05:18:58;;;;;;;228.27;215.90;;;12.80;99.90;;;;;;5052088;28;20025;-74
2024/01/25 05:21:25;;;;;;;183.55;173.30;;;12.80;99.90;;;;;;5053719;28;20456;-74
2024/01/25 05:23:51;;;;;;;238.20;225.15;;;12.70;99.90;;;;;;5050368;28;20048;-74
2024/01/25 05:26:17;;;;;;;207.57;196.25;;;12.70;99.90;;;;;;5052690;28;20079;-74
2024/01/25 05:28:43;;;;;;;201.30;190.27;;;12.70;99.90;;;;;;5035871;28;20419;-74
2024/01/25 05:31:12;;;;;;;217.48;205.98;;;12.70;99.90;;;;;;5053061;28;20040;-74
2024/01/25 05:33:42;;;;;;;173.57;164.63;;;12.60;99.90;;;;;;5053803;28;20025;-74
2024/01/25 05:36:09;;;;;;;195.43;184.80;;;12.60;99.90;;;;;;5034375;28;20076;-74
2024/01/25 05:38:35;;;;;;;245.93;232.63;;;12.50;99.90;;;;;;5052349;28;20044;-74
2024/01/25 05:41:01;;;;;;;182.02;172.02;;;12.30;99.90;;;;;;5044958;28;20037;-74
2024/01/25 05:43:27;;;;;;;229.43;216.65;;;12.10;99.90;;;;;;5052886;28;20147;-74
2024/01/25 05:45:54;;;;;;;188.10;177.73;;;12.00;99.90;;;;;;5051934;28;20506;-74
2024/01/25 05:48:20;;;;;;;162.90;154.15;;;12.00;99.90;;;;;;5053183;28;20040;-74
2024/01/25 05:50:46;;;;;;;136.48;128.95;;;12.10;99.90;;;;;;5052856;28;20044;-74
2024/01/25 05:53:13;;;;;;;144.65;137.07;;;12.20;99.90;;;;;;5052934;28;20033;-74
2024/01/25 05:55:39;;;;;;;141.38;133.70;;;12.30;99.90;;;;;;5051983;28;20487;-75
2024/01/25 05:58:05;;;;;;;132.57;125.40;;;12.40;99.90;;;;;;5052804;28;20032;-74
2024/01/25 06:00:31;;;;;;;110.78;104.95;;;12.50;99.90;;;;;;5052374;28;20029;-74
2024/01/25 06:02:58;;;;;;;137.25;130.25;;;12.60;99.90;;;;;;5052974;28;20033;-74
2024/01/25 06:05:24;;;;;;;187.15;176.90;;;12.70;99.90;;;;;;5052681;28;20052;-74
2024/01/25 06:07:50;;;;;;;213.10;201.82;;;12.70;99.90;;;;;;5052016;28;20029;-74
2024/01/25 06:10:16;;;;;;;214.73;203.10;;;12.70;99.90;;;;;;5051228;28;20423;-75
2024/01/25 06:12:43;;;;;;;184.40;174.40;;;12.50;99.90;;;;;;5035070;28;20040;-74
2024/01/25 06:15:09;;;;;;;212.30;200.77;;;12.60;99.90;;;;;;5052171;28;20048;-75
2024/01/25 06:17:35;;;;;;;226.05;213.60;;;12.60;99.90;;;;;;5048241;28;20036;-75
2024/01/25 06:20:02;;;;;;;219.93;208.30;;;12.60;99.90;;;;;;5052914;28;20025;-73
2024/01/25 06:22:28;;;;;;;239.70;226.52;;;12.60;99.90;;;;;;5051793;28;20048;-75
2024/01/25 06:24:54;;;;;;;226.70;214.32;;;12.50;99.90;;;;;;5051276;28;20029;-75
2024/01/25 06:27:20;;;;;;;240.90;228.02;;;12.30;99.90;;;;;;5051691;28;20037;-75
2024/01/25 06:29:47;;;;;;;223.93;212.00;;;12.40;99.90;;;;;;5052821;28;20139;-75
2024/01/25 06:32:13;;;;;;;219.93;208.13;;;12.50;99.90;;;;;;5051787;28;20076;-75
2024/01/25 06:34:39;;;;;;;213.88;202.35;;;12.50;99.90;;;;;;5052440;28;20029;-75
2024/01/25 06:37:05;;;;;;;212.73;201.43;;;12.60;99.90;;;;;;5035103;28;20045;-75
2024/01/25 06:39:32;;;;;;;215.50;204.15;;;12.60;99.90;;;;;;5032713;28;20037;-75
2024/01/25 06:41:58;;;;;;;222.63;210.13;;;12.60;99.90;;;;;;5046709;28;20045;-75
2024/01/25 06:44:24;;;;;;;226.77;214.65;;;12.50;99.90;;;;;;5052594;28;20033;-75
2024/01/25 06:46:50;;;;;;;236.38;223.75;;;12.40;99.90;;;;;;5050988;28;20048;-75
2024/01/25 06:49:16;;;;;;;212.10;200.85;;;12.50;99.90;;;;;;5052339;28;20033;-75
2024/01/25 06:51:42;;;;;;;217.77;205.90;;;12.50;99.90;;;;;;5051699;28;20052;-75
2024/01/25 06:54:09;;;;;;;203.57;192.70;;;12.50;99.90;;;;;;5052469;28;20025;-75
2024/01/25 06:56:35;;;;;;;206.63;195.50;;;12.60;99.90;;;;;;5052070;28;20033;-75
2024/01/25 06:59:01;;;;;;;185.85;176.02;;;12.60;99.90;;;;;;5052412;28;20029;-75
2024/01/25 07:01:27;;;;;;;183.10;173.25;;;12.60;99.90;;;;;;5051478;28;20044;-75
2024/01/25 07:03:53;;;;;;;208.07;197.15;;;12.60;99.90;;;;;;5051621;28;20033;-75
2024/01/25 07:06:20;;;;;;;205.95;195.05;;;12.40;99.90;;;;;;5050919;28;20060;-75
2024/01/25 07:08:46;;;;;;;212.57;201.02;;;12.30;99.90;;;;;;5052052;28;20029;-75
2024/01/25 07:11:12;;;;;;;211.40;199.95;;;12.30;99.90;;;;;;5033061;28;20037;-75
2024/01/25 07:13:38;;;;;;;210.20;198.95;;;12.40;99.90;;;;;;5034502;28;20036;-75
2024/01/25 07:16:04;;;;;;;164.48;156.13;;;12.40;99.90;;;;;;5043732;28;20044;-75
2024/01/25 07:18:31;;;;;;;154.65;146.70;;;12.20;99.90;;;;;;5031789;28;20033;-75
2024/01/25 07:20:57;;;;;;;254.95;241.27;;;12.00;99.90;;;;;;5046729;28;20035;-75
2024/01/25 07:23:23;;;;;;;265.85;251.52;;;11.90;99.90;;;;;;5052049;28;20029;-75
2024/01/25 07:25:49;;;;;;;257.83;243.90;;;11.80;99.90;;;;;;5051964;28;20383;-75
2024/01/25 07:28:15;;;;;;;235.32;222.95;;;12.00;99.90;;;;;;5052096;28;20033;-75
2024/01/25 07:30:41;;;;;;;185.10;175.38;;;12.10;99.90;;;;;;5033187;28;20025;-75
2024/01/25 07:33:07;;;;;;;238.13;225.65;;;12.20;99.90;;;;;;5050845;28;20044;-75
2024/01/25 07:35:33;;;;;;;238.40;225.88;;;12.30;99.90;;;;;;5051700;28;20037;-75
2024/01/25 07:38:00;;;;;;;251.02;237.77;;;12.30;99.90;;;;;;5051986;28;20035;-75
2024/01/25 07:40:26;;;;;;;194.40;184.13;;;12.30;99.90;;;;;;5050773;28;20044;-75
2024/01/25 07:42:52;;;;;;;209.68;198.25;;;12.10;99.90;;;;;;5051380;28;20025;-75
2024/01/25 07:45:18;;;;;;;246.20;232.85;;;11.80;99.90;;;;;;5050068;28;20032;-75
2024/01/25 07:47:44;;;;;;;230.52;218.38;;;11.70;99.90;;;;;;5050504;28;20049;-75
2024/01/25 07:50:11;;;;;;;281.48;266.33;;;11.80;99.90;;;;;;5051408;28;20040;-76
2024/01/25 07:52:37;;;;;;;261.98;247.60;;;11.80;99.90;;;;;;5051245;28;20403;-75
2024/01/25 07:55:04;;;;;;;213.45;201.70;;;11.70;99.90;;;;;;5049934;28;20029;-74
2024/01/25 07:57:30;;;;;;;216.05;203.95;;;11.60;99.90;;;;;;5050807;28;20045;-74
2024/01/25 07:59:56;;;;;;;299.05;282.23;;;11.60;99.90;;;;;;5051609;28;20463;-74
2024/01/25 08:02:22;;;;;;;308.92;291.45;;;11.70;99.90;;;;;;5050698;28;20044;-74
2024/01/25 08:04:48;;;;;;;239.38;225.98;;;11.60;99.90;;;;;;5050502;28;21027;-71
2024/01/25 08:07:14;;;;;;;234.10;221.45;;;11.50;99.90;;;;;;5050580;28;20037;-75
2024/01/25 08:09:41;;;;;;;211.48;200.00;;;11.60;99.90;;;;;;5051308;28;20403;-74
2024/01/25 08:12:07;;;;;;;229.32;216.75;;;11.70;99.90;;;;;;5051216;28;20252;-75
2024/01/25 08:14:33;;;;;;;220.02;207.98;;;11.70;99.90;;;;;;5049911;28;20721;-75
2024/01/25 08:16:59;;;;;;;211.05;199.90;;;11.70;99.90;;;;;;5048141;28;20037;-75
2024/01/25 08:19:25;;;;;;;248.80;235.43;;;11.70;99.90;;;;;;5036281;28;20384;-75
2024/01/25 08:21:51;;;;;;;189.13;179.38;;;11.80;99.90;;;;;;5052479;28;20041;-76
2024/01/25 08:24:18;;;;;;;236.32;223.75;;;11.90;99.90;;;;;;5053935;28;20033;-76
2024/01/25 08:26:44;;;;;;;216.55;204.50;;;11.80;99.90;;;;;;5036138;28;20041;-76
2024/01/25 08:29:10;;;;;;;209.57;198.05;;;11.70;99.90;;;;;;5038752;28;20056;-73
2024/01/25 08:31:36;;;;;;;194.93;184.50;;;11.90;99.90;;;;;;5053544;28;20414;-73
2024/01/25 08:34:03;;;;;;;162.35;153.93;;;12.00;99.90;;;;;;5054525;28;20033;-73
2024/01/25 08:36:29;;;;;;;169.05;160.15;;;12.10;99.90;;;;;;5054029;28;20082;-73
2024/01/25 08:38:55;;;;;;;227.07;215.27;;;12.20;99.90;;;;;;5054915;28;20036;-73
2024/01/25 08:41:21;;;;;;;270.30;254.98;;;12.20;99.90;;;;;;5036446;28;20411;-79
2024/01/25 08:43:47;;;;;;;215.75;204.63;;;12.10;99.90;;;;;;5054362;28;20037;-74
2024/01/25 08:46:15;;;;;;;247.80;234.57;;;12.20;99.90;;;;;;5051256;28;20056;-74
2024/01/25 08:48:41;;;;;;;159.43;151.30;;;12.20;99.90;;;;;;5019395;28;20040;-74
2024/01/25 08:51:08;;;;;;;163.60;155.10;;;12.20;99.90;;;;;;5052550;28;20044;-74
2024/01/25 08:53:34;;;;;;;147.38;139.98;;;12.30;99.90;;;;;;5049720;28;20037;-74
2024/01/25 08:56:00;;;;;;;152.50;144.43;;;12.30;99.90;;;;;;5050321;28;20487;-74
2024/01/25 08:58:26;;;;;;;167.45;159.00;;;12.20;99.90;;;;;;5054064;28;20040;-75
2024/01/25 09:00:52;;;;;;;129.52;122.93;;;12.10;99.90;;;;;;5050063;28;20040;-75
2024/01/25 09:03:19;;;;;;;112.85;107.15;;;12.10;99.90;;;;;;5053596;28;20033;-75
2024/01/25 09:05:45;;;;;;;141.63;134.38;;;11.90;99.90;;;;;;5052511;28;20041;-75
2024/01/25 09:08:12;;;;;;;234.77;222.43;;;11.90;99.90;;;;;;5053850;28;20029;-75
2024/01/25 09:10:41;;;;;;;277.10;262.33;;;12.10;99.90;;;;;;5053016;28;20048;-75
2024/01/25 09:13:07;;;;;;;269.58;255.25;;;12.20;99.90;;;;;;5052996;28;20036;-75
2024/01/25 09:15:33;;;;;;;264.08;249.75;;;12.30;99.90;;;;;;5045031;28;20498;-75
2024/01/25 09:17:59;;;;;;;161.70;153.32;;;12.50;99.90;;;;;;5051692;28;20021;-75
2024/01/25 09:20:25;;;;;;;139.48;132.27;;;12.60;99.90;;;;;;5053005;28;20486;-76
2024/01/25 09:22:53;;;;;;;131.23;124.63;;;12.70;99.90;;;;;;5054042;28;20036;-76
2024/01/25 09:25:20;;;;;;;94.32;89.55;;;12.70;99.90;;;;;;5051553;28;20041;-75
2024/01/25 09:27:46;;;;;;;97.28;92.05;;;12.80;99.90;;;;;;5034724;28;20041;-75
2024/01/25 09:30:12;;;;;;;96.07;90.88;;;12.80;99.90;;;;;;5051847;28;20028;-75
2024/01/25 09:32:38;;;;;;;124.43;118.07;;;13.00;99.90;;;;;;5053670;28;20509;-75
2024/01/25 09:35:05;;;;;;;104.03;98.63;;;13.00;99.90;;;;;;5053556;28;20040;-76
2024/01/25 09:37:31;;;;;;;119.22;113.13;;;13.10;99.90;;;;;;5047458;28;20039;-75
2024/01/25 09:40:00;;;;;;;294.10;277.20;;;13.30;99.90;;;;;;5053699;28;20033;-76
2024/01/25 09:42:26;;;;;;;184.52;175.05;;;13.60;99.90;;;;;;5052456;28;20053;-76
2024/01/25 09:44:53;;;;;;;221.93;209.40;;;13.80;99.90;;;;;;5052880;28;20033;-75
2024/01/25 09:47:21;;;;;;;243.02;230.07;;;13.90;99.90;;;;;;5034486;28;20037;-75
2024/01/25 09:49:47;;;;;;;295.65;279.40;;;13.80;99.90;;;;;;5035211;28;20491;-75
2024/01/25 09:52:13;;;;;;;189.35;179.70;;;13.80;99.90;;;;;;5034318;28;20534;-75
2024/01/25 09:54:39;;;;;;;177.98;168.68;;;13.80;99.90;;;;;;5052440;28;20020;-75
2024/01/25 09:57:17;;;;;;;184.45;174.57;;;13.80;99.90;;;;;;5052527;28;20037;-75
2024/01/25 09:59:43;;;;;;;184.48;175.15;;;13.80;99.90;;;;;;5052300;28;20037;-75
2024/01/25 10:02:10;;;;;;;216.80;205.50;;;13.80;99.90;;;;;;5050382;28;20040;-76
2024/01/25 10:04:36;;;;;;;290.38;274.15;;;13.60;99.90;;;;;;5050216;28;20059;-75
2024/01/25 10:07:03;;;;;;;266.67;252.18;;;13.50;99.90;;;;;;5051075;28;20041;-75
2024/01/25 10:09:38;;;;;;;319.98;301.80;;;13.50;99.90;;;;;;5045042;28;20045;-75
2024/01/25 10:12:05;;;;;;;359.05;338.05;;;13.30;99.90;;;;;;5048109;28;20037;-75
2024/01/25 10:14:31;;;;;;;278.30;263.27;;;13.20;99.90;;;;;;5033742;28;20032;-75
2024/01/25 10:16:58;;;;;;;315.42;297.83;;;13.20;99.90;;;;;;5050342;28;20507;-75
2024/01/25 10:19:25;;;;;;;358.65;337.83;;;13.20;99.90;;;;;;5052146;28;20037;-75
2024/01/25 10:21:51;;;;;;;282.88;267.35;;;13.20;99.90;;;;;;5029412;28;20048;-75
2024/01/25 10:24:17;;;;;;;298.40;282.05;;;13.20;99.90;;;;;;5052152;28;20260;-75
2024/01/25 10:26:43;;;;;;;320.63;302.50;;;13.30;99.90;;;;;;5049658;28;20036;-75
2024/01/25 10:29:10;;;;;;;319.98;301.52;;;13.40;99.90;;;;;;5052818;28;20036;-74
2024/01/25 10:31:38;;;;;;;212.20;200.98;;;13.30;99.90;;;;;;5033493;28;20036;-75
2024/01/25 10:34:05;;;;;;;151.63;143.68;;;13.30;99.90;;;;;;5033575;28;20040;-74
2024/01/25 10:36:31;;;;;;;112.00;106.20;;;13.30;99.90;;;;;;5034050;28;20048;-75
2024/01/25 10:38:57;;;;;;;144.88;137.30;;;13.30;99.90;;;;;;5033689;28;20032;-75
2024/01/25 10:41:24;;;;;;;155.95;148.07;;;13.30;99.90;;;;;;5016650;28;20383;-75
2024/01/25 10:43:50;;;;;;;194.20;183.85;;;13.40;99.90;;;;;;5051848;28;20052;-75
2024/01/25 10:46:16;;;;;;;156.48;148.18;;;13.50;99.90;;;;;;5032988;28;20033;-75
2024/01/25 10:48:42;;;;;;;172.43;163.48;;;13.60;99.90;;;;;;5051969;28;20063;-75
2024/01/25 10:51:09;;;;;;;200.85;190.38;;;13.80;99.90;;;;;;5040172;28;20029;-75
2024/01/25 10:53:35;;;;;;;193.40;182.90;;;13.90;99.90;;;;;;5033870;28;20476;-75
2024/01/25 10:56:01;;;;;;;203.88;193.10;;;14.00;99.90;;;;;;5016035;28;20033;-75
2024/01/25 10:58:33;;;;;;;238.48;225.65;;;14.00;99.90;;;;;;5033123;28;20044;-75
2024/01/25 11:00:59;;;;;;;233.02;220.52;;;14.10;99.90;;;;;;5031949;28;20372;-74
2024/01/25 11:03:30;;;;;;;226.15;214.07;;;14.20;99.90;;;;;;5033164;28;20041;-74
2024/01/25 11:06:12;;;;;;;254.50;240.88;;;14.20;99.90;;;;;;5050561;28;20044;-75
2024/01/25 11:08:38;;;;;;;244.40;231.32;;;14.30;99.90;;;;;;5051410;28;20045;-75
2024/01/25 11:11:11;;;;;;;218.52;207.05;;;14.40;99.90;;;;;;5033621;28;20056;-74
2024/01/25 11:13:43;;;;;;;223.02;211.25;;;14.40;99.90;;;;;;5033986;28;20292;-74
2024/01/25 11:16:24;;;;;;;205.57;194.73;;;14.40;99.90;;;;;;5045155;28;20037;-74
2024/01/25 11:18:52;;;;;;;223.63;211.35;;;14.40;99.90;;;;;;5033821;28;20383;-74
2024/01/25 11:21:40;;;;;;;247.75;233.82;;;14.40;99.90;;;;;;5045062;28;20030;-74
2024/01/25 11:24:10;;;;;;;230.85;218.07;;;14.40;99.90;;;;;;5051768;28;20032;-77
2024/01/25 11:26:37;;;;;;;223.63;211.40;;;14.40;99.90;;;;;;5024505;28;20032;-73
2024/01/25 11:29:03;;;;;;;205.30;194.10;;;14.40;99.90;;;;;;5016464;28;20043;-74
2024/01/25 11:31:29;;;;;;;216.32;204.55;;;14.40;99.90;;;;;;5050431;28;20041;-74
2024/01/25 11:33:59;;;;;;;219.38;207.65;;;14.40;99.90;;;;;;5050716;28;20403;-74
2024/01/25 11:36:26;;;;;;;219.98;207.70;;;14.40;99.90;;;;;;5048910;28;20813;-74
2024/01/25 11:38:52;;;;;;;197.48;187.18;;;14.40;99.90;;;;;;5050770;28;20052;-75
2024/01/25 11:41:19;;;;;;;239.10;225.95;;;14.40;99.90;;;;;;5049885;28;20032;-75
2024/01/25 11:43:45;;;;;;;225.77;213.55;;;14.50;99.90;;;;;;5050256;28;20518;-75
2024/01/25 11:46:11;;;;;;;233.73;221.30;;;14.60;99.90;;;;;;5049768;28;20443;-75
2024/01/25 11:48:43;;;;;;;221.00;209.02;;;14.70;99.90;;;;;;5033744;28;20044;-75
2024/01/25 11:51:11;;;;;;;205.13;194.15;;;14.70;99.90;;;;;;5033529;28;20052;-75
2024/01/25 11:53:37;;;;;;;191.18;181.00;;;14.80;99.90;;;;;;5045348;28;20049;-74
2024/01/25 11:56:05;;;;;;;166.93;158.32;;;14.80;99.90;;;;;;5039309;28;20045;-75
2024/01/25 11:58:31;;;;;;;139.55;132.38;;;14.90;99.90;;;;;;5028374;28;20045;-75
2024/01/25 12:00:57;;;;;;;165.25;156.57;;;14.90;99.90;;;;;;5036639;28;20025;-75
2024/01/25 12:03:23;;;;;;;175.98;167.02;;;14.90;99.90;;;;;;5055107;28;20120;-75
2024/01/25 12:05:51;;;;;;;212.88;201.70;;;14.90;99.90;;;;;;5053598;28;20040;-75